METAR AND TAF INFORMATION
METAR FOR KSFO
KSFO 130956Z 19010KT 6SM -RA BR FEW013 BKN028 OVC035 12/10 A2980 RMK AO2 RAB27 SLP091 P0007 T01220100
KSFO 130944Z 16013KT 6SM RA FEW019 SCT025 OVC032 12/09 A2980 RMK AO2 RAB27 P0003 T01220094
KSFO 130856Z 16011KT 10SM OVC033 13/09 A2979 RMK AO2 RAE37 SLP089 P0000 60000 T01330094 58006
KSFO 130756Z 16012KT 10SM -RA SCT027 BKN035 OVC042 13/09 A2980 RMK AO2 PK WND 17026/0713 RAB24 SLP092 P0000 T01280094 401610106
KSFO 130707Z 17011G20KT 10SM BKN034 BKN050 14/08 A2981 RMK AO2 T01390083
KSFO 130656Z 15012KT 10SM BKN028 BKN036 14/08 A2981 RMK AO2 RAE0557 SLP095 P0000 T01390083
KSFO 130644Z 18009KT 10SM BKN028 BKN036 14/08 A2981 RMK AO2 RAE0557 P0000 T01390083
KSFO 130855Z 1309/1412 16014G24KT 5SM -RA BKN025
FM131400 16016G26KT 6SM -SHRA BKN035
FM131800 17017G27KT P6SM VCSH BKN035
FM140000 14013G23KT 6SM -SHRA OVC050

 AIRPORT MAP

 RUNWAY INFORMATION
Runway 01L Runway length 7500 ft Runway width 200 ft
Runway elevation 10 ft Runway displaced threshold 491 ft Runway heading 28
Runway 19R Runway length 7500 ft Runway width 200 ft
Runway elevation 9 ft Runway displaced threshold 0 ft Runway heading 208
Runway 01R Runway length 8648 ft Runway width 200 ft
Runway elevation 12 ft Runway displaced threshold 238 ft Runway heading 28
Runway 19L Runway length 8648 ft Runway width 200 ft
Runway elevation 10 ft Runway displaced threshold 0 ft Runway heading 208
Runway 10L Runway length 11870 ft Runway width 200 ft
Runway elevation 5 ft Runway displaced threshold 0 ft Runway heading 118
Runway 28R Runway length 11870 ft Runway width 200 ft
Runway elevation 13 ft Runway displaced threshold 0 ft Runway heading 298
Runway 10R Runway length 10602 ft Runway width 200 ft
Runway elevation 6 ft Runway displaced threshold 0 ft Runway heading 118
Runway 28L Runway length 10602 ft Runway width 200 ft
Runway elevation 13 ft Runway displaced threshold 0 ft Runway heading 298

 AIRPORT FREQUENCIES
Type APP Name NORCAL APP Frequency 125.35 MHZ
Type ATIS Name ATIS Frequency 113.7 MHZ
Type AWOS Name AWOS 1 Frequency 118.05 MHZ
Type CLD Name CLNC DEL Frequency 118.2 MHZ
Type DEP Name NORCAL DEP Frequency 120.9 MHZ
Type GND Name GND Frequency 121.8 MHZ
Type MISC Name USCG Frequency 34.5 MHZ
Type TWR Name TWR Frequency 120.5 MHZ
Type UNIC Name UNICOM Frequency 122.95 MHZ

 AIRPORT NEAR NAVIGATION AIDS
Type NDB Name Brijj Frequency 379 KHZ
Type VOR-DME Name San Francisco Frequency 115800 KHZ

-